LFPM 201030Z AUTO VRB03KT CAVOK 23/16 Q1015

Sorties Club
Le Touquet Paris Plage

Remerciements a Kevin et Valentin pour l'organisation de cette sortie et aux instructeurs pour l'encadrement



Le Briefing photo Les Avions au Parking photo Sur le Tarmac du Touquet photo
Sur le Tarmac du Touquet photo Le Groupe photo Au Restaurant photo